East Fultonham, Ohio
Current Conditions -  °F | °C
As of 11:53 AM on Thursday 23 Oct 2014 (Local Time) from KZZV Reporting Station
Broken Clouds Broken Clouds  
Wind Chill: 45°   Ceiling: 1900
Heat Index: 49°   Visibility: 10mi
Dew Point: 41°   Wind: 10mph
Humidity: 74%   Direction: 290°WNW
Pressure: 30.22"   Gusts: NA
Location:  39.85°N, 82.12°W
Report Text: KZZV 231553Z AUTO 29009KT 10SM BKN019 09/05 A3022 RMK AO2 SLP236 T00940050
Loading
Personal Weather Stations






























Interactive Weather Map
Tropical Storm Tracking
New forecast layout! Learn more

10-Day Weather Forecast

Advertisements
Track Severe Weather on mobile